Time;durP1;ratioP1;P1;durP2;ratioP2;P2;SDS_P1;SDS_P2;PMS_P1;PMS_P2;Temp;Humidity;BMP_temperature;BMP_pressure;BME280_temperature;BME280_humidity;BME280_pressure;Samples;Min_cycle;Max_cycle;Signal;HPM_P1;HPM_P2
2023/12/06 00:01:04;;;;;;;53.50;30.27;;;2.30;99.90;;;;;;5048817;28;20032;-46
2023/12/06 00:03:30;;;;;;;55.92;29.45;;;2.30;99.90;;;;;;5048663;28;20032;-43
2023/12/06 00:05:55;;;;;;;49.80;29.02;;;2.30;99.90;;;;;;5048618;28;20048;-44
2023/12/06 00:08:21;;;;;;;55.60;28.92;;;2.30;99.90;;;;;;5048502;28;20052;-44
2023/12/06 00:10:47;;;;;;;53.00;29.00;;;2.30;99.90;;;;;;5048055;28;20029;-45
2023/12/06 00:13:13;;;;;;;50.97;28.40;;;2.30;99.90;;;;;;5048757;28;20641;-48
2023/12/06 00:15:39;;;;;;;55.25;30.90;;;2.30;99.90;;;;;;5048250;28;20021;-48
2023/12/06 00:18:05;;;;;;;55.60;29.70;;;2.30;99.90;;;;;;5048375;28;20436;-45
2023/12/06 00:20:30;;;;;;;52.33;27.42;;;2.30;99.90;;;;;;5048296;28;20017;-45
2023/12/06 00:22:56;;;;;;;55.50;29.33;;;2.30;99.90;;;;;;5064271;28;20025;-45
2023/12/06 00:25:22;;;;;;;53.90;29.23;;;2.30;99.90;;;;;;5048388;28;20032;-46
2023/12/06 00:27:48;;;;;;;52.38;29.50;;;2.30;99.90;;;;;;5048408;28;20409;-45
2023/12/06 00:30:13;;;;;;;49.95;26.92;;;2.30;99.90;;;;;;5048317;28;20055;-47
2023/12/06 00:32:39;;;;;;;53.47;29.40;;;2.30;99.90;;;;;;5047046;28;20029;-45
2023/12/06 00:35:08;;;;;;;49.72;28.25;;;2.30;99.90;;;;;;5048191;28;20036;-46
2023/12/06 00:37:33;;;;;;;54.30;28.90;;;2.40;99.90;;;;;;5047990;28;20028;-45
2023/12/06 00:39:59;;;;;;;51.20;28.58;;;2.30;99.90;;;;;;5047838;28;20482;-47
2023/12/06 00:42:25;;;;;;;61.00;30.75;;;2.40;99.90;;;;;;5048528;28;20106;-45
2023/12/06 00:44:50;;;;;;;57.53;30.55;;;2.40;99.90;;;;;;5048234;28;20025;-45
2023/12/06 00:47:16;;;;;;;50.42;28.13;;;2.30;99.90;;;;;;5047026;28;20108;-44
2023/12/06 00:49:41;;;;;;;48.88;28.00;;;2.30;99.90;;;;;;5047888;28;20057;-46
2023/12/06 00:52:08;;;;;;;47.50;27.00;;;2.40;99.90;;;;;;5046807;28;20088;-49
2023/12/06 00:54:33;;;;;;;48.90;28.27;;;2.40;99.90;;;;;;5048025;28;20112;-47
2023/12/06 00:56:59;;;;;;;51.95;26.85;;;2.40;99.90;;;;;;5048115;28;20445;-47
2023/12/06 00:59:24;;;;;;;54.63;28.70;;;2.40;99.90;;;;;;5036201;28;20030;-47
2023/12/06 01:01:50;;;;;;;50.47;26.75;;;2.40;99.90;;;;;;5062791;28;20058;-44
2023/12/06 01:04:16;;;;;;;47.55;25.85;;;2.40;99.90;;;;;;5048369;28;20027;-45
2023/12/06 01:06:41;;;;;;;47.03;26.35;;;2.40;99.90;;;;;;5047649;28;20063;-45
2023/12/06 01:09:08;;;;;;;46.33;26.60;;;2.50;99.90;;;;;;5046356;28;20078;-45
2023/12/06 01:11:33;;;;;;;48.35;26.90;;;2.40;99.90;;;;;;5042935;28;20526;-45
2023/12/06 01:13:59;;;;;;;55.45;31.27;;;2.50;99.90;;;;;;5029221;28;20116;-45
2023/12/06 01:16:24;;;;;;;50.03;29.17;;;2.40;99.90;;;;;;5029244;28;20030;-48
2023/12/06 01:18:50;;;;;;;48.63;27.45;;;2.40;99.90;;;;;;5027860;28;20017;-49
2023/12/06 01:21:16;;;;;;;50.63;27.17;;;2.40;99.90;;;;;;5029405;28;20025;-46
2023/12/06 01:23:41;;;;;;;53.03;28.15;;;2.50;99.90;;;;;;5033760;28;20025;-47
2023/12/06 01:26:07;;;;;;;47.63;27.90;;;2.50;99.90;;;;;;5032706;28;20021;-44
2023/12/06 01:28:33;;;;;;;48.65;27.92;;;2.50;99.90;;;;;;5033206;28;20498;-46
2023/12/06 01:30:58;;;;;;;52.42;28.25;;;2.40;99.90;;;;;;5043914;28;20033;-46
2023/12/06 01:33:24;;;;;;;49.00;27.73;;;2.40;99.90;;;;;;5051508;28;20025;-46
2023/12/06 01:35:49;;;;;;;56.83;29.60;;;2.40;99.90;;;;;;5051125;28;20036;-48
2023/12/06 01:38:15;;;;;;;49.55;26.42;;;2.40;99.90;;;;;;5050996;28;20086;-47
2023/12/06 01:40:41;;;;;;;49.10;27.88;;;2.40;99.90;;;;;;5051280;28;20142;-45
2023/12/06 01:43:08;;;;;;;47.42;26.88;;;2.40;99.90;;;;;;5050024;28;20321;-46
2023/12/06 01:45:33;;;;;;;47.15;28.08;;;2.40;99.90;;;;;;5051024;28;20466;-45
2023/12/06 01:48:00;;;;;;;52.33;27.38;;;2.40;99.90;;;;;;5050831;28;20063;-45
2023/12/06 01:50:26;;;;;;;49.55;27.50;;;2.40;99.90;;;;;;5051031;28;20107;-46
2023/12/06 01:52:55;;;;;;;49.58;27.33;;;2.40;99.90;;;;;;5050790;28;20592;-47
2023/12/06 01:55:20;;;;;;;49.22;27.20;;;2.40;99.90;;;;;;5050917;28;20091;-44
2023/12/06 01:57:46;;;;;;;47.42;28.08;;;2.40;99.90;;;;;;5050521;28;20407;-47
2023/12/06 02:00:13;;;;;;;47.55;27.50;;;2.40;99.90;;;;;;5050542;28;20095;-46
2023/12/06 02:02:38;;;;;;;52.03;28.40;;;2.40;99.90;;;;;;5042286;28;20056;-47
2023/12/06 02:05:04;;;;;;;50.22;27.50;;;2.40;99.90;;;;;;5030069;28;20065;-48
2023/12/06 02:07:33;;;;;;;51.15;26.88;;;2.40;99.90;;;;;;5047035;28;20037;-45
2023/12/06 02:09:58;;;;;;;52.33;26.05;;;2.40;99.90;;;;;;5050392;28;20025;-45
2023/12/06 02:12:24;;;;;;;52.83;29.23;;;2.40;99.90;;;;;;5049263;28;20044;-49
2023/12/06 02:14:49;;;;;;;50.33;28.73;;;2.40;99.90;;;;;;5049452;28;20060;-47
2023/12/06 02:17:18;;;;;;;55.67;30.27;;;2.40;99.90;;;;;;5050588;28;20068;-45
2023/12/06 02:19:44;;;;;;;49.15;28.15;;;2.50;99.90;;;;;;5050524;28;20035;-48
2023/12/06 02:25:32;;;;;;;47.63;26.83;;;2.50;99.90;;;;;;5032834;28;20558;-46
2023/12/06 02:27:58;;;;;;;51.45;27.05;;;2.40;99.90;;;;;;5029963;28;20086;-44
2023/12/06 02:30:23;;;;;;;51.15;26.63;;;2.40;99.90;;;;;;5029832;28;20014;-48
2023/12/06 02:32:49;;;;;;;49.00;27.60;;;2.40;99.90;;;;;;5030222;28;20037;-46
2023/12/06 02:35:21;;;;;;;53.08;27.73;;;2.40;99.90;;;;;;5030122;28;20044;-47
2023/12/06 02:37:49;;;;;;;45.20;26.38;;;2.50;99.90;;;;;;5029862;28;20053;-45
2023/12/06 02:40:16;;;;;;;52.47;28.20;;;2.40;99.90;;;;;;5029723;28;20072;-44
2023/12/06 02:42:42;;;;;;;51.00;27.95;;;2.40;99.90;;;;;;5029673;28;20030;-45
2023/12/06 02:45:08;;;;;;;53.47;29.98;;;2.40;99.90;;;;;;5045334;28;20076;-48
2023/12/06 02:47:33;;;;;;;51.33;28.92;;;2.50;99.90;;;;;;5029336;28;20032;-43
2023/12/06 02:49:59;;;;;;;49.15;27.75;;;2.40;99.90;;;;;;5029564;28;20037;-45
2023/12/06 02:52:25;;;;;;;47.67;26.52;;;2.40;99.90;;;;;;5029842;28;20063;-45
2023/12/06 02:54:50;;;;;;;53.15;29.70;;;2.40;99.90;;;;;;5029726;28;20060;-47
2023/12/06 02:57:16;;;;;;;54.60;29.30;;;2.40;99.90;;;;;;5029392;28;20024;-44
2023/12/06 02:59:41;;;;;;;51.10;28.27;;;2.40;99.90;;;;;;5029255;28;20096;-46
2023/12/06 03:02:07;;;;;;;46.88;26.33;;;2.30;99.90;;;;;;5028399;28;20395;-45
2023/12/06 03:04:33;;;;;;;49.05;28.33;;;2.30;99.90;;;;;;5028907;28;20028;-45
2023/12/06 03:06:58;;;;;;;49.60;29.05;;;2.40;99.90;;;;;;5029662;28;20525;-44
2023/12/06 03:09:24;;;;;;;48.78;27.08;;;2.40;99.90;;;;;;5029290;28;20025;-44
2023/12/06 03:11:49;;;;;;;52.97;28.65;;;2.40;99.90;;;;;;5029102;28;20032;-45
2023/12/06 03:14:15;;;;;;;49.78;28.13;;;2.30;99.90;;;;;;5027116;28;20021;-44
2023/12/06 03:16:41;;;;;;;51.15;28.13;;;2.40;99.90;;;;;;5028858;28;20306;-44
2023/12/06 03:19:06;;;;;;;48.90;27.83;;;2.30;99.90;;;;;;5028955;28;20140;-46
2023/12/06 03:21:32;;;;;;;50.55;26.15;;;2.40;99.90;;;;;;5029265;28;20036;-44
2023/12/06 03:23:58;;;;;;;53.45;28.85;;;2.40;99.90;;;;;;5029145;28;20029;-46
2023/12/06 03:26:23;;;;;;;50.50;29.25;;;2.40;99.90;;;;;;5028970;28;20309;-44
2023/12/06 03:28:49;;;;;;;49.88;28.83;;;2.40;99.90;;;;;;5028472;28;20060;-46
2023/12/06 03:31:14;;;;;;;54.78;29.73;;;2.40;99.90;;;;;;5028823;28;20033;-45
2023/12/06 03:33:40;;;;;;;52.85;28.25;;;2.40;99.90;;;;;;5028919;28;20495;-45
2023/12/06 03:36:09;;;;;;;52.42;28.45;;;2.40;99.90;;;;;;5028995;28;20022;-45
2023/12/06 03:38:35;;;;;;;44.17;25.95;;;2.40;99.90;;;;;;5028736;28;20018;-46
2023/12/06 03:41:01;;;;;;;51.28;27.95;;;2.50;99.90;;;;;;5028949;28;20021;-45
2023/12/06 03:43:26;;;;;;;52.90;29.70;;;2.50;99.90;;;;;;5029043;28;20039;-45
2023/12/06 03:45:52;;;;;;;51.47;28.83;;;2.40;99.90;;;;;;5028269;28;20040;-45
2023/12/06 03:48:17;;;;;;;50.65;27.67;;;2.50;99.90;;;;;;5027315;28;20079;-46
2023/12/06 03:50:43;;;;;;;54.20;30.48;;;2.50;99.90;;;;;;5028451;28;20029;-47
2023/12/06 03:53:09;;;;;;;49.72;28.98;;;2.50;99.90;;;;;;5029137;28;20600;-46
2023/12/06 03:55:34;;;;;;;54.92;30.98;;;2.50;99.90;;;;;;5028401;28;20033;-45
2023/12/06 03:58:00;;;;;;;50.65;28.40;;;2.50;99.90;;;;;;5028553;28;20050;-48
2023/12/06 04:00:26;;;;;;;50.05;28.25;;;2.50;99.90;;;;;;5028260;28;20048;-46
2023/12/06 04:02:52;;;;;;;53.22;29.38;;;2.40;99.90;;;;;;5028587;28;20487;-49
2023/12/06 04:05:18;;;;;;;54.17;28.45;;;2.40;99.90;;;;;;5028270;28;20033;-47
2023/12/06 04:07:44;;;;;;;58.97;29.88;;;2.40;99.90;;;;;;5028480;28;20033;-46
2023/12/06 04:10:09;;;;;;;56.88;29.58;;;2.40;99.90;;;;;;5028419;28;20025;-46
2023/12/06 04:12:35;;;;;;;59.65;31.58;;;2.50;99.90;;;;;;5028217;28;20029;-47
2023/12/06 04:15:01;;;;;;;48.08;27.50;;;2.40;99.90;;;;;;5028198;28;20056;-46
2023/12/06 04:17:26;;;;;;;49.67;28.08;;;2.40;99.90;;;;;;5028137;28;20024;-45
2023/12/06 04:19:52;;;;;;;50.42;29.65;;;2.50;99.90;;;;;;5028061;28;20033;-44
2023/12/06 04:22:17;;;;;;;46.15;27.20;;;2.40;99.90;;;;;;5028290;28;20040;-45
2023/12/06 04:24:43;;;;;;;54.70;27.33;;;2.50;99.90;;;;;;5028020;28;20483;-45
2023/12/06 04:27:09;;;;;;;52.28;29.80;;;2.50;99.90;;;;;;5027792;28;20376;-47
2023/12/06 04:29:34;;;;;;;60.72;31.35;;;2.50;99.90;;;;;;5027909;28;20076;-44
2023/12/06 04:32:00;;;;;;;52.50;31.52;;;2.50;99.90;;;;;;5028276;28;20550;-45
2023/12/06 04:34:26;;;;;;;63.58;30.65;;;2.40;99.90;;;;;;5032796;28;20026;-45
2023/12/06 04:36:51;;;;;;;54.80;30.70;;;2.50;99.90;;;;;;5040606;28;20021;-44
2023/12/06 04:39:17;;;;;;;49.60;29.42;;;2.50;99.90;;;;;;5039322;28;20029;-49
2023/12/06 04:41:42;;;;;;;60.00;31.52;;;2.40;99.90;;;;;;5039767;28;20017;-45
2023/12/06 04:44:08;;;;;;;47.03;27.75;;;2.40;99.90;;;;;;5041221;28;20529;-45
2023/12/06 04:46:34;;;;;;;50.78;27.45;;;2.40;99.90;;;;;;5038170;28;20104;-45
2023/12/06 04:48:59;;;;;;;55.08;30.98;;;2.40;99.90;;;;;;5041116;28;20032;-45
2023/12/06 04:51:25;;;;;;;56.25;29.75;;;2.40;99.90;;;;;;5038703;28;20041;-46
2023/12/06 04:53:50;;;;;;;55.28;29.17;;;2.40;99.90;;;;;;5040511;28;20032;-46
2023/12/06 04:56:16;;;;;;;55.30;31.25;;;2.40;99.90;;;;;;5035108;28;20051;-44
2023/12/06 04:58:41;;;;;;;55.95;30.35;;;2.50;99.90;;;;;;5042982;28;20026;-45
2023/12/06 05:01:08;;;;;;;54.53;31.05;;;2.50;99.90;;;;;;5044997;28;20112;-45
2023/12/06 05:03:34;;;;;;;57.13;30.55;;;2.50;99.90;;;;;;5042285;28;20104;-47
2023/12/06 05:05:59;;;;;;;58.47;30.38;;;2.40;99.90;;;;;;5045033;28;20123;-45
2023/12/06 05:08:25;;;;;;;55.83;30.13;;;2.40;99.90;;;;;;5042400;28;20029;-45
2023/12/06 05:10:50;;;;;;;60.20;32.70;;;2.40;99.90;;;;;;5044808;28;20036;-46
2023/12/06 05:13:16;;;;;;;61.80;30.90;;;2.40;99.90;;;;;;5043535;28;20070;-44
2023/12/06 05:15:43;;;;;;;53.28;30.42;;;2.40;99.90;;;;;;5041889;28;20490;-45
2023/12/06 05:18:08;;;;;;;55.58;30.27;;;2.40;99.90;;;;;;5041871;28;20025;-46
2023/12/06 05:20:34;;;;;;;49.40;29.15;;;2.40;99.90;;;;;;5042243;28;20422;-47
2023/12/06 05:23:00;;;;;;;53.00;28.88;;;2.40;99.90;;;;;;5045198;28;20198;-45
2023/12/06 05:25:25;;;;;;;51.58;28.30;;;2.30;99.90;;;;;;5033332;28;20149;-45
2023/12/06 05:27:52;;;;;;;51.22;27.70;;;2.40;99.90;;;;;;5031875;28;20036;-48
2023/12/06 05:30:17;;;;;;;45.88;26.15;;;2.40;99.90;;;;;;5031981;28;20064;-46
2023/12/06 05:32:43;;;;;;;45.72;26.83;;;2.40;99.90;;;;;;5035689;28;20061;-47
2023/12/06 05:35:09;;;;;;;44.28;25.38;;;2.40;99.90;;;;;;5033021;28;20024;-44
2023/12/06 05:37:34;;;;;;;45.00;24.92;;;2.50;99.90;;;;;;5031590;28;20195;-47
2023/12/06 05:40:00;;;;;;;46.45;25.02;;;2.50;99.90;;;;;;5031019;28;20014;-46
2023/12/06 05:42:25;;;;;;;39.10;21.20;;;2.50;99.90;;;;;;5031086;28;20057;-44
2023/12/06 05:44:51;;;;;;;40.92;21.25;;;2.40;99.90;;;;;;5032016;28;20028;-43
2023/12/06 05:47:16;;;;;;;41.08;22.30;;;2.50;99.90;;;;;;5031290;28;20025;-45
2023/12/06 05:49:42;;;;;;;37.70;20.55;;;2.50;99.90;;;;;;5031155;28;20026;-45
2023/12/06 05:52:08;;;;;;;41.35;21.40;;;2.50;99.90;;;;;;5032239;28;20245;-46
2023/12/06 05:54:33;;;;;;;35.30;20.75;;;2.50;99.90;;;;;;5032462;28;20025;-45
2023/12/06 05:56:59;;;;;;;34.08;18.98;;;2.50;99.90;;;;;;5035597;28;20017;-44
2023/12/06 05:59:25;;;;;;;36.95;19.92;;;2.50;99.90;;;;;;5030036;28;20029;-45
2023/12/06 06:01:51;;;;;;;35.33;18.60;;;2.50;99.90;;;;;;5031135;28;20471;-47
2023/12/06 06:04:16;;;;;;;33.63;18.52;;;2.50;99.90;;;;;;5031030;28;20041;-49
2023/12/06 06:06:42;;;;;;;32.83;18.63;;;2.50;99.90;;;;;;5031218;28;20034;-45
2023/12/06 06:09:08;;;;;;;32.22;17.90;;;2.50;99.90;;;;;;5029992;28;20401;-46
2023/12/06 06:11:34;;;;;;;27.40;15.70;;;2.50;99.90;;;;;;5030929;28;20040;-46
2023/12/06 06:14:00;;;;;;;33.40;17.67;;;2.50;99.90;;;;;;5031105;28;20025;-48
2023/12/06 06:16:26;;;;;;;29.58;15.75;;;2.50;99.90;;;;;;5035784;28;20027;-46
2023/12/06 06:18:51;;;;;;;29.75;17.25;;;2.50;99.90;;;;;;5044239;28;20021;-46
2023/12/06 06:21:17;;;;;;;25.77;14.93;;;2.50;99.90;;;;;;5044650;28;20043;-46
2023/12/06 06:23:45;;;;;;;25.63;15.15;;;2.50;99.90;;;;;;5043824;28;20029;-46
2023/12/06 06:26:11;;;;;;;31.13;15.65;;;2.50;99.90;;;;;;5044740;28;20029;-49
2023/12/06 06:28:37;;;;;;;29.00;15.63;;;2.50;99.90;;;;;;5039363;28;20079;-45
2023/12/06 06:31:03;;;;;;;29.10;15.45;;;2.50;99.90;;;;;;5030363;28;20026;-48
2023/12/06 06:33:29;;;;;;;30.45;15.23;;;2.50;99.90;;;;;;5028055;28;20022;-48
2023/12/06 06:35:55;;;;;;;27.25;14.77;;;2.50;99.90;;;;;;5031074;28;20025;-45
2023/12/06 06:38:21;;;;;;;31.52;16.50;;;2.50;99.90;;;;;;5031150;28;20570;-45
2023/12/06 06:40:47;;;;;;;28.85;15.30;;;2.50;99.90;;;;;;5043882;28;20021;-45
2023/12/06 06:43:12;;;;;;;29.48;15.52;;;2.50;99.90;;;;;;5041769;28;21246;-46
2023/12/06 06:45:42;;;;;;;26.38;15.13;;;2.50;99.90;;;;;;5043051;28;20026;-43
2023/12/06 06:48:09;;;;;;;28.98;16.20;;;2.50;99.90;;;;;;5045175;28;20096;-49
2023/12/06 06:50:35;;;;;;;26.25;14.27;;;2.50;99.90;;;;;;5042616;28;20502;-43
2023/12/06 06:53:01;;;;;;;27.52;14.70;;;2.40;99.90;;;;;;5045051;28;20051;-45
2023/12/06 06:55:27;;;;;;;27.90;15.88;;;2.40;99.90;;;;;;5043102;28;20051;-45
2023/12/06 06:57:52;;;;;;;22.67;12.32;;;2.40;99.90;;;;;;5044895;28;20017;-47
2023/12/06 07:00:19;;;;;;;23.70;14.15;;;2.40;99.90;;;;;;5043309;28;20036;-46
2023/12/06 07:02:45;;;;;;;24.05;12.32;;;2.40;99.90;;;;;;5042013;28;20104;-45
2023/12/06 07:05:13;;;;;;;19.60;11.30;;;2.40;99.90;;;;;;5027506;28;20116;-47
2023/12/06 07:07:41;;;;;;;18.63;10.68;;;2.40;99.90;;;;;;5030971;28;20498;-48
2023/12/06 07:10:08;;;;;;;19.30;9.82;;;2.40;99.90;;;;;;5030667;28;20032;-46
2023/12/06 07:12:34;;;;;;;22.25;10.90;;;2.40;99.90;;;;;;5023576;28;20518;-45
2023/12/06 07:14:59;;;;;;;19.88;11.80;;;2.30;99.90;;;;;;5034337;28;20068;-44
2023/12/06 07:17:26;;;;;;;19.95;11.07;;;2.30;99.90;;;;;;5041877;28;20370;-45
2023/12/06 07:19:54;;;;;;;18.25;9.65;;;2.30;99.90;;;;;;5042549;28;20037;-47
2023/12/06 07:22:20;;;;;;;16.00;9.60;;;2.20;99.90;;;;;;5044954;28;20021;-45
2023/12/06 07:24:46;;;;;;;17.65;9.95;;;2.30;99.90;;;;;;5043564;28;20105;-45
2023/12/06 07:27:12;;;;;;;15.27;9.32;;;2.30;99.90;;;;;;5045215;28;20088;-49
2023/12/06 07:29:37;;;;;;;15.75;10.13;;;2.30;99.90;;;;;;5042980;28;20021;-46
2023/12/06 07:32:03;;;;;;;18.83;9.88;;;2.20;99.90;;;;;;5040054;28;20067;-45
2023/12/06 07:34:29;;;;;;;16.85;10.07;;;2.20;99.90;;;;;;5043625;28;20028;-45
2023/12/06 07:36:54;;;;;;;20.88;11.40;;;2.20;99.90;;;;;;5040605;28;20053;-45
2023/12/06 07:39:20;;;;;;;19.70;12.25;;;2.30;99.90;;;;;;5044262;28;20536;-47
2023/12/06 07:41:46;;;;;;;23.67;10.68;;;2.20;99.90;;;;;;5038003;28;20071;-45
2023/12/06 07:44:12;;;;;;;17.92;10.93;;;2.30;99.90;;;;;;5045295;28;20028;-44
2023/12/06 07:46:38;;;;;;;19.48;10.63;;;2.30;99.90;;;;;;5043177;28;20026;-47
2023/12/06 07:49:04;;;;;;;20.63;11.57;;;2.30;99.90;;;;;;5045064;28;20094;-45
2023/12/06 07:51:29;;;;;;;21.05;11.75;;;2.20;99.90;;;;;;5043705;28;20363;-46
2023/12/06 07:53:56;;;;;;;20.77;12.15;;;2.30;99.90;;;;;;5038859;28;20033;-45
2023/12/06 07:56:22;;;;;;;20.90;12.15;;;2.30;99.90;;;;;;5030986;28;20071;-47
2023/12/06 07:58:50;;;;;;;20.52;12.68;;;2.30;99.90;;;;;;5043788;28;20436;-46
2023/12/06 08:01:16;;;;;;;20.17;12.45;;;2.30;99.90;;;;;;5045230;28;20677;-46
2023/12/06 08:03:44;;;;;;;18.10;11.43;;;2.30;99.90;;;;;;5044037;28;20029;-48
2023/12/06 08:06:10;;;;;;;20.40;11.77;;;2.30;99.90;;;;;;5045308;28;20036;-45
2023/12/06 08:08:35;;;;;;;21.50;12.10;;;2.30;99.90;;;;;;5039703;28;20533;-44
2023/12/06 08:11:01;;;;;;;24.55;14.07;;;2.30;99.90;;;;;;5044026;28;20466;-45
2023/12/06 08:13:27;;;;;;;21.42;12.70;;;2.30;99.90;;;;;;5044360;28;20017;-46
2023/12/06 08:15:53;;;;;;;20.98;12.35;;;2.30;99.90;;;;;;5061058;28;20382;-46
2023/12/06 08:18:18;;;;;;;22.63;12.30;;;2.30;99.90;;;;;;5045217;28;20100;-46
2023/12/06 08:20:44;;;;;;;25.50;13.95;;;2.30;99.90;;;;;;5034951;28;20552;-44
2023/12/06 08:23:10;;;;;;;23.25;13.02;;;2.40;99.90;;;;;;5044689;28;20029;-44
2023/12/06 08:25:35;;;;;;;26.83;13.55;;;2.40;99.90;;;;;;5037118;28;20041;-45
2023/12/06 08:28:01;;;;;;;22.33;13.63;;;2.40;99.90;;;;;;5044065;28;20052;-47
2023/12/06 08:30:26;;;;;;;25.67;14.57;;;2.40;99.90;;;;;;5044950;28;20021;-46
2023/12/06 08:32:53;;;;;;;25.95;14.15;;;2.40;99.90;;;;;;5049252;28;20013;-45
2023/12/06 08:35:19;;;;;;;22.42;12.13;;;2.40;99.90;;;;;;5049819;28;20009;-45
2023/12/06 08:37:45;;;;;;;25.48;13.68;;;2.50;99.90;;;;;;5048543;28;20025;-46
2023/12/06 08:40:12;;;;;;;28.80;13.35;;;2.40;99.90;;;;;;5049383;28;20100;-47
2023/12/06 08:42:38;;;;;;;25.98;14.18;;;2.40;99.90;;;;;;5048553;28;20029;-44
2023/12/06 08:45:04;;;;;;;25.98;14.05;;;2.40;99.90;;;;;;5049604;28;20057;-44
2023/12/06 08:47:32;;;;;;;23.13;12.95;;;2.40;99.90;;;;;;5046080;28;20021;-45
2023/12/06 08:49:58;;;;;;;25.27;13.55;;;2.40;99.90;;;;;;5041199;28;20367;-46
2023/12/06 08:52:23;;;;;;;29.83;14.40;;;2.40;99.90;;;;;;5050011;28;20094;-44
2023/12/06 08:54:49;;;;;;;27.75;15.15;;;2.40;99.90;;;;;;5064051;28;20593;-45
2023/12/06 08:57:14;;;;;;;28.08;13.52;;;2.40;99.90;;;;;;5043847;28;20394;-44
2023/12/06 08:59:40;;;;;;;33.67;15.93;;;2.30;99.90;;;;;;5047120;28;20025;-46
2023/12/06 09:02:06;;;;;;;29.02;14.50;;;2.40;99.90;;;;;;5048336;28;20104;-45
2023/12/06 09:04:32;;;;;;;27.05;14.82;;;2.30;99.90;;;;;;5048836;28;20104;-45
2023/12/06 09:06:57;;;;;;;25.27;14.13;;;2.40;99.90;;;;;;5049510;28;20497;-46
2023/12/06 09:09:23;;;;;;;33.00;15.48;;;2.30;99.90;;;;;;5047877;28;20407;-46
2023/12/06 09:11:49;;;;;;;32.63;16.52;;;2.30;99.90;;;;;;5048532;28;20059;-45
2023/12/06 09:14:14;;;;;;;33.67;16.92;;;2.30;99.90;;;;;;5049528;28;20076;-44
2023/12/06 09:16:40;;;;;;;34.30;18.45;;;2.30;99.90;;;;;;5048743;28;20264;-43
2023/12/06 09:19:07;;;;;;;43.60;20.17;;;2.30;99.90;;;;;;5049511;28;20017;-47
2023/12/06 09:21:44;;;;;;;39.67;19.40;;;2.20;99.90;;;;;;5049541;28;20087;-45
2023/12/06 09:24:11;;;;;;;47.05;21.27;;;2.20;99.90;;;;;;5049934;28;20409;-47
2023/12/06 09:26:37;;;;;;;48.13;20.80;;;2.20;99.90;;;;;;5048960;28;20040;-47
2023/12/06 09:29:08;;;;;;;42.83;20.95;;;2.20;99.90;;;;;;5041984;28;20474;-45
2023/12/06 09:31:34;;;;;;;47.45;21.77;;;2.20;99.90;;;;;;5047507;28;20498;-43
2023/12/06 09:34:00;;;;;;;46.60;21.90;;;2.20;99.90;;;;;;5049937;28;20134;-47
2023/12/06 09:36:27;;;;;;;50.47;21.70;;;2.20;99.90;;;;;;5049794;28;20019;-45
2023/12/06 09:38:53;;;;;;;46.55;22.75;;;2.20;99.90;;;;;;5048917;28;20496;-44
2023/12/06 09:41:20;;;;;;;49.55;22.95;;;2.10;99.90;;;;;;5043248;28;20482;-45
2023/12/06 09:43:46;;;;;;;50.42;22.90;;;2.10;99.90;;;;;;5047312;28;20029;-45
2023/12/06 09:46:16;;;;;;;47.28;22.30;;;2.20;99.90;;;;;;5049700;28;20544;-44
2023/12/06 09:48:41;;;;;;;62.67;26.50;;;2.10;99.90;;;;;;5064524;28;20442;-45
2023/12/06 09:51:07;;;;;;;54.33;24.35;;;2.10;99.90;;;;;;5050182;28;20092;-47
2023/12/06 09:53:33;;;;;;;46.33;22.17;;;2.10;99.90;;;;;;5049446;28;20021;-44
2023/12/06 09:55:59;;;;;;;48.78;23.00;;;2.10;99.90;;;;;;5049942;28;20116;-45
2023/12/06 09:58:25;;;;;;;48.40;25.25;;;2.10;99.90;;;;;;5048391;28;20021;-43
2023/12/06 10:00:51;;;;;;;48.38;22.25;;;2.10;99.90;;;;;;5049370;28;20037;-43
2023/12/06 10:03:21;;;;;;;43.20;22.63;;;2.10;99.90;;;;;;5049659;28;20025;-48
2023/12/06 10:05:55;;;;;;;41.47;22.08;;;2.20;99.90;;;;;;5049433;28;20025;-44
2023/12/06 10:08:20;;;;;;;46.10;22.77;;;2.20;99.90;;;;;;5050059;28;20022;-44
2023/12/06 10:10:46;;;;;;;42.15;21.13;;;2.20;99.90;;;;;;5048260;28;20040;-48
2023/12/06 10:13:12;;;;;;;49.83;22.90;;;2.20;99.90;;;;;;5050126;28;20520;-45
2023/12/06 10:15:38;;;;;;;38.85;20.70;;;2.20;99.90;;;;;;5049842;28;20040;-43
2023/12/06 10:18:04;;;;;;;44.00;21.85;;;2.20;99.90;;;;;;5048747;28;20029;-46
2023/12/06 10:20:29;;;;;;;45.10;21.27;;;2.20;99.90;;;;;;5049839;28;20482;-45
2023/12/06 10:22:55;;;;;;;37.03;20.55;;;2.20;99.90;;;;;;5050094;28;20090;-48
2023/12/06 10:25:21;;;;;;;41.42;22.17;;;2.20;99.90;;;;;;5049768;28;20045;-45
2023/12/06 10:27:46;;;;;;;41.30;22.08;;;2.30;99.90;;;;;;5049533;28;20100;-44
2023/12/06 10:30:20;;;;;;;36.40;21.00;;;2.30;99.90;;;;;;5042460;28;20035;-45
2023/12/06 10:32:46;;;;;;;40.13;22.13;;;2.30;99.90;;;;;;5044718;28;20198;-46
2023/12/06 10:35:12;;;;;;;41.80;22.20;;;2.30;99.90;;;;;;5038905;28;20045;-44
2023/12/06 10:37:40;;;;;;;38.78;21.63;;;2.30;99.90;;;;;;5029809;28;20392;-46
2023/12/06 10:40:09;;;;;;;40.20;20.95;;;2.30;99.90;;;;;;5030036;28;20352;-46
2023/12/06 10:42:36;;;;;;;38.90;21.25;;;2.30;99.90;;;;;;5029730;28;20034;-45
2023/12/06 10:45:03;;;;;;;40.13;21.63;;;2.30;99.90;;;;;;5030108;28;20115;-44
2023/12/06 10:47:33;;;;;;;45.20;22.80;;;2.30;99.90;;;;;;5028570;28;20566;-45
2023/12/06 10:50:00;;;;;;;42.60;21.58;;;2.30;99.90;;;;;;5029661;28;20037;-46
2023/12/06 10:52:27;;;;;;;45.95;23.33;;;2.30;99.90;;;;;;5029624;28;20509;-44
2023/12/06 10:54:54;;;;;;;40.35;23.02;;;2.30;99.90;;;;;;5028196;28;20143;-46
2023/12/06 10:57:20;;;;;;;44.38;22.90;;;2.30;99.90;;;;;;5028364;28;20057;-44
2023/12/06 10:59:46;;;;;;;43.00;22.52;;;2.40;99.90;;;;;;5026639;28;20427;-45
2023/12/06 11:02:12;;;;;;;43.47;23.60;;;2.40;99.90;;;;;;5020272;28;20120;-45
2023/12/06 11:04:50;;;;;;;42.10;22.23;;;2.40;99.90;;;;;;5028772;28;20107;-47
2023/12/06 11:08:07;;;;;;;49.20;22.63;;;2.40;99.90;;;;;;5027805;28;20283;-47
2023/12/06 11:10:59;;;;;;;48.15;25.10;;;2.40;99.90;;;;;;5004986;28;20029;-48
2023/12/06 11:14:02;;;;;;;44.60;22.15;;;2.50;99.90;;;;;;5029645;28;20116;-45
2023/12/06 11:16:47;;;;;;;47.67;24.13;;;2.40;99.90;;;;;;5029411;28;20029;-44
2023/12/06 11:19:14;;;;;;;45.65;22.40;;;2.40;99.90;;;;;;5023133;28;20445;-49
2023/12/06 11:21:40;;;;;;;48.53;24.05;;;2.40;99.90;;;;;;5027073;28;20022;-45
2023/12/06 11:24:08;;;;;;;45.60;22.20;;;2.40;99.90;;;;;;5023963;28;20033;-46
2023/12/06 11:26:33;;;;;;;42.97;21.95;;;2.40;99.90;;;;;;5026281;28;20030;-44
2023/12/06 11:29:02;;;;;;;40.25;21.20;;;2.40;99.90;;;;;;5029507;28;20021;-48
2023/12/06 11:31:36;;;;;;;41.95;21.80;;;2.40;99.90;;;;;;5030133;28;20017;-44
2023/12/06 11:34:07;;;;;;;38.97;21.35;;;2.40;99.90;;;;;;5022441;28;20498;-45
2023/12/06 11:36:35;;;;;;;45.40;22.80;;;2.50;99.90;;;;;;5043358;28;20026;-43
2023/12/06 11:39:16;;;;;;;40.97;21.02;;;2.50;99.90;;;;;;5021543;28;20020;-47
2023/12/06 11:42:04;;;;;;;40.88;20.95;;;2.50;99.90;;;;;;5029634;28;20306;-48
2023/12/06 11:44:30;;;;;;;39.13;20.92;;;2.50;99.90;;;;;;5030059;28;20045;-48
2023/12/06 11:46:56;;;;;;;38.65;20.80;;;2.50;99.90;;;;;;5029859;28;20495;-43
2023/12/06 11:49:23;;;;;;;38.22;20.27;;;2.50;99.90;;;;;;5029758;28;20029;-43
2023/12/06 11:51:59;;;;;;;43.70;22.20;;;2.50;99.90;;;;;;5030232;28;20021;-44
2023/12/06 11:54:25;;;;;;;41.92;21.25;;;2.40;99.90;;;;;;5029903;28;20028;-47
2023/12/06 11:56:51;;;;;;;42.05;23.52;;;2.40;99.90;;;;;;5030284;28;20043;-45
2023/12/06 11:59:17;;;;;;;41.90;22.48;;;2.40;99.90;;;;;;5044055;28;20029;-45
2023/12/06 12:01:44;;;;;;;40.55;23.02;;;2.40;99.90;;;;;;5030268;28;20025;-45
2023/12/06 12:04:10;;;;;;;37.88;21.80;;;2.40;99.90;;;;;;5029930;28;20021;-45
2023/12/06 12:06:36;;;;;;;40.60;20.92;;;2.40;99.90;;;;;;5029873;28;20037;-45
2023/12/06 12:09:03;;;;;;;46.75;23.73;;;2.40;99.90;;;;;;5044571;28;20518;-45
2023/12/06 12:11:32;;;;;;;37.53;22.08;;;2.40;99.90;;;;;;5045590;28;20506;-46
2023/12/06 12:13:58;;;;;;;41.33;20.67;;;2.40;99.90;;;;;;5029337;28;20041;-47
2023/12/06 12:16:24;;;;;;;42.83;22.40;;;2.40;99.90;;;;;;5030307;28;20374;-45
2023/12/06 12:18:50;;;;;;;46.47;22.85;;;2.40;99.90;;;;;;5029559;28;20032;-45
2023/12/06 12:21:19;;;;;;;45.08;21.35;;;2.40;99.90;;;;;;5028814;28;20475;-46
2023/12/06 12:23:48;;;;;;;48.67;22.30;;;2.40;99.90;;;;;;5023674;28;20513;-47
2023/12/06 12:26:15;;;;;;;52.13;23.40;;;2.40;99.90;;;;;;5028416;28;20471;-44
2023/12/06 12:28:42;;;;;;;43.40;21.25;;;2.40;99.90;;;;;;5027650;28;20025;-45
2023/12/06 12:31:13;;;;;;;42.20;22.15;;;2.40;99.90;;;;;;5029998;28;20014;-45
2023/12/06 12:33:40;;;;;;;45.78;21.90;;;2.40;99.90;;;;;;5030595;28;20021;-43
2023/12/06 12:36:07;;;;;;;50.67;20.98;;;2.40;99.90;;;;;;5026414;28;20018;-45
2023/12/06 12:38:34;;;;;;;47.78;22.20;;;2.30;99.90;;;;;;5029120;28;20064;-44